METAR Data
IDs: Format: Raw Decoded Include TAF

Data at: 2018 UTC 19 May 2019

KSDA 192015Z AUTO 30013G18KT 10SM BKN039 OVC055 15/09 A2986 RMK AO2
KSDA 191955Z AUTO 28014KT 10SM FEW035 FEW040 OVC055 15/09 A2986 RMK AO2
KSDA 191935Z AUTO 28015KT 10SM FEW035 SCT045 OVC050 15/08 A2985 RMK AO2
KSDA 191915Z AUTO 29012G19KT 10SM FEW033 SCT039 BKN047 14/08 A2984 RMK AO2
KSDA 191855Z AUTO 29013G20KT 10SM FEW032 BKN043 OVC049 15/08 A2983 RMK AO2
KSDA 191835Z AUTO 30014G19KT 10SM FEW029 SCT035 BKN043 15/09 A2982 RMK AO2
KSDA 191815Z AUTO 31013G22KT 10SM SCT027 BKN033 OVC048 13/09 A2982 RMK AO2
KSDA 191755Z AUTO 29009G19KT 260V320 10SM SCT028 BKN036 OVC044 14/09 A2982 RMK AO2
KSDA 191735Z AUTO 30014G19KT 10SM BKN028 BKN035 OVC049 14/10 A2981 RMK AO2
KSDA 191715Z AUTO 30013G19KT 10SM BKN027 BKN033 OVC048 14/09 A2981 RMK AO2
KSDA 191655Z AUTO 30012G18KT 10SM SCT025 BKN030 OVC040 14/10 A2979 RMK AO2
KSDA 191635Z AUTO 29011G17KT 10SM SCT027 OVC039 14/10 A2978 RMK AO2
KSDA 191615Z AUTO 28011KT 10SM SCT022 BKN035 OVC041 14/11 A2977 RMK AO2
KSDA 191555Z AUTO 31012G19KT 10SM SCT022 SCT029 OVC036 14/10 A2975 RMK AO2
KSDA 191535Z AUTO 31011G21KT 10SM SCT024 BKN030 OVC037 13/10 A2974 RMK AO2
KSDA 191515Z AUTO 31015KT 10SM FEW020 BKN026 OVC036 13/10 A2974 RMK AO2
KSDA 191455Z AUTO 30010G18KT 10SM SCT020 SCT025 OVC036 14/11 A2973 RMK AO2
KSDA 191435Z AUTO 31010G19KT 10SM SCT019 SCT025 OVC035 14/11 A2972 RMK AO2
KSDA 191415Z AUTO 30013G18KT 10SM SCT019 BKN025 OVC032 14/11 A2972 RMK AO2
KSDA 191355Z AUTO 30010G17KT 10SM SCT017 SCT025 OVC034 14/12 A2971 RMK AO2
KSDA 191335Z AUTO 30011G17KT 10SM OVC033 14/12 A2970 RMK AO2
KSDA 191315Z AUTO 30012G19KT 10SM SCT019 OVC032 14/12 A2969 RMK AO2
KSDA 191255Z AUTO 30012KT 10SM OVC018 13/12 A2968 RMK AO2
KSDA 191235Z AUTO 29007G13KT 10SM OVC017 14/12 A2967 RMK AO2
KSDA 191215Z AUTO 31010G16KT 10SM OVC019 14/12 A2966 RMK AO2
KSDA 191155Z AUTO 30009KT 10SM BKN018 BKN030 OVC042 14/12 A2965 RMK AO2
KSDA 191135Z AUTO 29008KT 10SM FEW017 FEW030 OVC040 14/13 A2964 RMK AO2
KSDA 191115Z AUTO 31010KT 10SM OVC036 14/13 A2963 RMK AO2
KSDA 191055Z AUTO 31006G13KT 10SM FEW016 OVC035 14/13 A2963 RMK AO2
KSDA 191035Z AUTO 28007KT 260V320 10SM OVC036 14/13 A2963 RMK AO2
KSDA 191015Z AUTO 30005KT 10SM BKN039 OVC055 14/14 A2962 RMK AO2
KSDA 190955Z AUTO 30005KT 10SM FEW039 OVC055 14/14 A2962 RMK AO2
KSDA 190935Z AUTO 31006KT 10SM FEW037 OVC050 15/14 A2961 RMK AO2
KSDA 190915Z AUTO 31005KT 10SM BKN050 OVC055 15/14 A2961 RMK AO2
KSDA 190855Z AUTO 28003KT 10SM OVC050 15/14 A2960 RMK AO2
KSDA 190835Z AUTO 28004KT 10SM BKN047 OVC055 15/14 A2960 RMK AO2
KSDA 190815Z AUTO VRB04KT 10SM FEW028 SCT037 BKN044 15/14 A2960 RMK AO2
KSDA 190755Z AUTO 30004KT 10SM SCT027 OVC036 15/15 A2960 RMK AO2
KSDA 190735Z AUTO 32005G11KT 10SM FEW026 OVC034 15/15 A2960 RMK AO2
KSDA 190715Z AUTO 31006KT 10SM OVC032 15/15 A2960 RMK AO2
KSDA 190655Z AUTO 30004KT 10SM FEW012 BKN029 BKN035 15/15 A2960 RMK AO2
KSDA 190635Z AUTO 00000KT 7SM CLR 15/15 A2960 RMK AO2
KSDA 190615Z AUTO 00000KT 7SM CLR 15/15 A2959 RMK AO2
KSDA 190555Z AUTO 00000KT 9SM CLR 15/15 A2958 RMK AO2
KSDA 190535Z AUTO 00000KT 10SM CLR 16/15 A2958 RMK AO2
KSDA 190515Z AUTO 34005KT 10SM FEW070 FEW110 16/16 A2958 RMK AO2
KSDA 190455Z AUTO 34006KT 10SM BKN070 BKN120 16/16 A2959 RMK AO2
KSDA 190435Z AUTO 00000KT 10SM FEW044 SCT050 OVC065 15/15 A2961 RMK AO2
KSDA 190415Z AUTO 28004KT 10SM SCT046 OVC055 15/15 A2963 RMK AO2
KSDA 190355Z AUTO 28003KT 10SM FEW047 BKN060 15/15 A2963 RMK AO2
KSDA 190335Z AUTO 29004KT 10SM FEW046 15/15 A2961 RMK AO2
KSDA 190315Z AUTO 00000KT 10SM SCT046 BKN090 16/15 A2959 RMK AO2
KSDA 190255Z AUTO 31005KT 10SM BKN095 16/15 A2959 RMK AO2
KSDA 190235Z AUTO 04003KT 10SM SCT046 SCT055 BKN065 16/16 A2959 RMK AO2
KSDA 190215Z AUTO 05006KT 10SM FEW012 SCT018 BKN038 16/16 A2959 RMK AO2
KSDA 190155Z AUTO 02009KT 10SM SCT013 SCT018 OVC040 17/16 A2960 RMK AO2
KSDA 190135Z AUTO 03007KT 10SM SCT040 BKN048 OVC055 17/16 A2960 RMK AO2
KSDA 190115Z AUTO 34007KT 7SM OVC048 17/16 A2960 RMK AO2
KSDA 190055Z AUTO 33005KT 10SM OVC047 17/17 A2959 RMK AO2
KSDA 190035Z AUTO 31005KT 10SM OVC047 17/17 A2959 RMK AO2
KSDA 190015Z AUTO 29004KT 9SM BKN047 BKN060 17/17 A2958 RMK AO2
KSDA 182355Z AUTO 29003KT 3SM -RA FEW031 FEW060 SCT080 17/17 A2958 RMK AO2
KSDA 182335Z AUTO 26003KT 3SM -DZ SCT031 BKN037 BKN046 17/17 A2959 RMK AO2
KSDA 182315Z AUTO 31004KT 4SM -DZ FEW042 FEW048 BKN065 17/17 A2957 RMK AO2
KSDA 182255Z AUTO 02008KT 3SM -RA FEW070 17/17 A2956 RMK AO2
KSDA 182235Z AUTO 03004KT 3SM -RA FEW043 FEW055 SCT075 17/17 A2958 RMK AO2
KSDA 182215Z AUTO 10003KT 5SM -RA FEW037 FEW044 SCT075 18/17 A2960 RMK AO2
KSDA 182155Z AUTO 32006KT 4SM -RA FEW034 FEW042 FEW050 18/18 A2959 RMK AO2
KSDA 182135Z AUTO 35004KT 5SM -RA SCT034 SCT045 SCT050 18/17 A2960 RMK AO2
KSDA 182115Z AUTO 22007KT 4SM -RA SCT034 BKN039 BKN045 18/18 A2963 RMK AO2
KSDA 182055Z AUTO 18010KT 2SM -RA BKN034 OVC039 18/18 A2964 RMK AO2
KSDA 182035Z AUTO 18013KT 1 1/4SM RA SCT014 OVC033 18/18 A2965 RMK AO2
KSDA 182015Z AUTO 18015G21KT 1 3/4SM RA SCT003 BKN034 OVC043 18/18 A2966 RMK AO2
KSDA 181955Z AUTO 17021G28KT 1/2SM +RA BKN003 OVC033 18/18 A2964 RMK AO2
KSDA 181935Z AUTO 18011G17KT FEW006 BKN036 OVC065 21/17 A2964 RMK AO2
KSDA 181915Z AUTO 18009KT 10SM OVC037 22/16 A2962 RMK AO2
KSDA 181855Z AUTO 18011KT 10SM SCT037 23/16 A2960 RMK AO2
KSDA 181835Z AUTO 22014KT 10SM CLR 23/15 A2956 RMK AO2
KSDA 181815Z AUTO 22015KT 10SM FEW043 24/15 A2957 RMK AO2
KSDA 181755Z AUTO 21015KT 10SM SCT044 BKN055 24/15 A2959 RMK AO2
KSDA 181735Z AUTO 21016KT 10SM BKN042 OVC050 25/15 A2958 RMK AO2
KSDA 181715Z AUTO 20018KT 10SM OVC043 25/15 A2958 RMK AO2
KSDA 181655Z AUTO 21016KT 10SM BKN042 BKN049 BKN055 26/14 A2957 RMK AO2
KSDA 181635Z AUTO 18016G22KT 10SM FEW043 SCT050 26/13 A2958 RMK AO2
KSDA 181615Z AUTO 17018KT 10SM CLR 26/14 A2959 RMK AO2
KSDA 181555Z AUTO 18018KT 10SM CLR 25/14 A2959 RMK AO2
KSDA 181535Z AUTO 18019G24KT 10SM FEW050 25/14 A2958 RMK AO2
KSDA 181515Z AUTO 18019KT 10SM CLR 24/14 A2958 RMK AO2
KSDA 181455Z AUTO 16015G20KT 10SM CLR 23/15 A2957 RMK AO2
KSDA 181435Z AUTO 17016KT 10SM CLR 22/15 A2956 RMK AO2
KSDA 181415Z AUTO 15014KT 10SM CLR 21/16 A2956 RMK AO2
KSDA 181355Z AUTO 14012KT 10SM CLR 20/16 A2955 RMK AO2
KSDA 181335Z AUTO 14010KT 10SM CLR 18/16 A2954 RMK AO2
KSDA 181315Z AUTO 13012G18KT 10SM CLR 18/16 A2955 RMK AO2
KSDA 181255Z AUTO 11018G24KT 9SM FEW042 FEW055 SCT090 18/17 A2951 RMK AO2
KSDA 181235Z AUTO 13012KT 8SM FEW044 SCT055 BKN070 18/17 A2963 RMK AO2
KSDA 181215Z AUTO 14006KT 8SM FEW055 SCT070 BKN075 18/17 A2964 RMK AO2
KSDA 181155Z AUTO 12007KT 8SM -RA FEW050 FEW075 OVC100 18/16 A2962 RMK AO2
KSDA 181135Z AUTO 19004KT 10SM BKN110 18/16 A2964 RMK AO2
KSDA 181115Z AUTO 21004KT 10SM FEW065 SCT075 BKN110 18/16 A2963 RMK AO2
KSDA 181055Z AUTO 24008KT 10SM BKN075 OVC090 19/16 A2965 RMK AO2
KSDA 181035Z AUTO 23008KT 10SM FEW075 OVC085 19/16 A2965 RMK AO2
KSDA 181015Z AUTO 21009KT 10SM FEW075 BKN090 OVC110 19/16 A2964 RMK AO2
KSDA 180955Z AUTO 22014KT 10SM FEW044 SCT055 BKN075 20/15 A2963 RMK AO2
KSDA 180935Z AUTO 22013G18KT 10SM SCT044 BKN055 OVC110 21/14 A2961 RMK AO2
KSDA 180915Z AUTO 21011KT 10SM FEW033 SCT055 BKN070 21/17 A2961 RMK AO2
KSDA 180855Z AUTO 17013G18KT 10SM FEW047 SCT075 OVC090 22/17 A2958 RMK AO2
KSDA 180835Z AUTO 17015KT 10SM FEW075 BKN090 BKN110 22/17 A2958 RMK AO2